Time;durP1;ratioP1;P1;durP2;ratioP2;P2;SDS_P1;SDS_P2;PMS_P1;PMS_P2;Temp;Humidity;BMP_temperature;BMP_pressure;BME280_temperature;BME280_humidity;BME280_pressure;Samples;Min_cycle;Max_cycle;Signal;HPM_P1;HPM_P2
2022/07/09 00:01:07;;;;;;;;;;;19.80;97.00;;;;;;4363344;32;42658;-77
2022/07/09 00:03:34;;;;;;;;;;;19.80;97.00;;;;;;4376574;32;41884;-77
2022/07/09 00:06:02;;;;;;;;;;;19.80;97.10;;;;;;4376800;32;43631;-76
2022/07/09 00:08:30;;;;;;;;;;;19.80;97.10;;;;;;4376462;32;43014;-77
2022/07/09 00:10:57;;;;;;;;;;;19.80;97.00;;;;;;4376844;32;43032;-77
2022/07/09 00:13:24;;;;;;;;;;;19.70;96.90;;;;;;4363162;32;43806;-77
2022/07/09 00:15:52;;;;;;;;;;;19.80;97.10;;;;;;4376532;32;42935;-77
2022/07/09 00:18:19;;;;;;;;;;;19.80;97.10;;;;;;4363032;32;43934;-77
2022/07/09 00:20:46;;;;;;;;;;;19.70;96.80;;;;;;4375759;32;44601;-77
2022/07/09 00:23:13;;;;;;;;;;;19.70;96.80;;;;;;4376852;32;43482;-77
2022/07/09 00:25:40;;;;;;;;;;;19.70;97.00;;;;;;4363294;32;43181;-77
2022/07/09 00:28:08;;;;;;;;;;;19.70;97.00;;;;;;4376677;32;44620;-77
2022/07/09 00:30:35;;;;;;;;;;;19.70;97.10;;;;;;4376268;32;42458;-77
2022/07/09 00:33:02;;;;;;;;;;;19.70;97.10;;;;;;4362917;32;42519;-77
2022/07/09 00:35:29;;;;;;;;;;;19.70;97.10;;;;;;4376520;32;43833;-77
2022/07/09 00:37:56;;;;;;;;;;;19.70;97.00;;;;;;4363238;32;44307;-77
2022/07/09 00:40:23;;;;;;;;;;;19.70;97.10;;;;;;4362730;32;42647;-77
2022/07/09 00:42:50;;;;;;;;;;;19.70;97.10;;;;;;4363144;32;43905;-78
2022/07/09 00:45:17;;;;;;;;;;;19.70;96.90;;;;;;4362557;32;43039;-77
2022/07/09 00:47:44;;;;;;;;;;;19.70;97.00;;;;;;4376465;32;43725;-77
2022/07/09 00:50:11;;;;;;;;;;;19.60;97.00;;;;;;4362936;32;45863;-77
2022/07/09 00:52:39;;;;;;;;;;;19.70;97.10;;;;;;4376314;32;43910;-77
2022/07/09 00:55:06;;;;;;;;;;;19.60;97.00;;;;;;4362886;32;43858;-76
2022/07/09 00:57:34;;;;;;;;;;;19.60;96.90;;;;;;4362394;32;42562;-77
2022/07/09 01:00:01;;;;;;;;;;;19.60;97.20;;;;;;4362911;32;44191;-77
2022/07/09 01:02:28;;;;;;;;;;;19.60;96.90;;;;;;4362508;32;43463;-77
2022/07/09 01:04:55;;;;;;;;;;;19.60;97.00;;;;;;4376043;32;43475;-77
2022/07/09 01:07:22;;;;;;;;;;;19.60;97.00;;;;;;4375691;32;42491;-77
2022/07/09 01:09:49;;;;;;;;;;;19.60;96.80;;;;;;4375533;32;43022;-77
2022/07/09 01:12:16;;;;;;;;;;;19.60;96.90;;;;;;4376124;32;45219;-77
2022/07/09 01:14:43;;;;;;;;;;;19.60;96.90;;;;;;4375700;32;43470;-77
2022/07/09 01:17:10;;;;;;;;;;;19.60;96.90;;;;;;4362692;32;43466;-77
2022/07/09 01:19:37;;;;;;;;;;;19.50;96.90;;;;;;4375970;32;43852;-77
2022/07/09 01:22:04;;;;;;;;;;;19.50;96.80;;;;;;4362382;32;42751;-77
2022/07/09 01:24:33;;;;;;;;;;;19.50;96.80;;;;;;4375569;32;43419;-76
2022/07/09 01:27:00;;;;;;;;;;;19.50;96.80;;;;;;4375578;32;44809;-77
2022/07/09 01:29:27;;;;;;;;;;;19.50;96.90;;;;;;4375796;32;43697;-77
2022/07/09 01:31:54;;;;;;;;;;;19.50;96.90;;;;;;4375501;32;44028;-77
2022/07/09 01:34:21;;;;;;;;;;;19.50;96.90;;;;;;4375793;32;42692;-77
2022/07/09 01:36:48;;;;;;;;;;;19.50;96.90;;;;;;4375596;32;44187;-77
2022/07/09 01:39:16;;;;;;;;;;;19.50;96.80;;;;;;4375288;32;43094;-77
2022/07/09 01:41:43;;;;;;;;;;;19.50;96.90;;;;;;4375333;32;42558;-76
2022/07/09 01:44:10;;;;;;;;;;;19.40;96.80;;;;;;4375361;32;43191;-76
2022/07/09 01:46:37;;;;;;;;;;;19.40;96.90;;;;;;4361622;32;45128;-77
2022/07/09 01:49:04;;;;;;;;;;;19.40;96.90;;;;;;4361833;32;42847;-77
2022/07/09 01:51:34;;;;;;;;;;;19.40;96.90;;;;;;4362092;32;43066;-77
2022/07/09 01:54:02;;;;;;;;;;;19.40;96.90;;;;;;4375522;32;44126;-77
2022/07/09 01:56:29;;;;;;;;;;;19.40;97.00;;;;;;4374984;32;42145;-76
2022/07/09 01:58:56;;;;;;;;;;;19.40;96.90;;;;;;4361520;32;43755;-77
2022/07/09 02:01:23;;;;;;;;;;;19.40;96.90;;;;;;4375228;32;43573;-77
2022/07/09 02:03:50;;;;;;;;;;;19.40;96.90;;;;;;4375499;32;43513;-77
2022/07/09 02:06:18;;;;;;;;;;;19.40;96.90;;;;;;4361928;32;42704;-77
2022/07/09 02:08:45;;;;;;;;;;;19.40;96.90;;;;;;4375192;32;42837;-77
2022/07/09 02:11:12;;;;;;;;;;;19.30;96.90;;;;;;4374822;32;44680;-76
2022/07/09 02:13:39;;;;;;;;;;;19.30;96.90;;;;;;4361578;32;42572;-77
2022/07/09 02:16:06;;;;;;;;;;;19.30;96.90;;;;;;4361758;32;43383;-77
2022/07/09 02:18:33;;;;;;;;;;;19.30;96.90;;;;;;4375104;32;42636;-77
2022/07/09 02:21:01;;;;;;;;;;;19.30;96.90;;;;;;4375210;32;44307;-76
2022/07/09 02:23:28;;;;;;;;;;;19.30;96.90;;;;;;4361781;32;45325;-77
2022/07/09 02:25:55;;;;;;;;;;;19.30;96.90;;;;;;4361222;32;43788;-77
2022/07/09 02:28:22;;;;;;;;;;;19.30;96.90;;;;;;4374661;32;42888;-77
2022/07/09 02:30:49;;;;;;;;;;;19.30;96.90;;;;;;4374548;32;44014;-77
2022/07/09 02:33:16;;;;;;;;;;;19.30;96.90;;;;;;4361544;32;44176;-77
2022/07/09 02:35:43;;;;;;;;;;;19.30;96.90;;;;;;4361255;32;43910;-77
2022/07/09 02:38:10;;;;;;;;;;;19.30;96.80;;;;;;4374846;32;43710;-77
2022/07/09 02:40:37;;;;;;;;;;;19.30;96.90;;;;;;4374782;32;42677;-77
2022/07/09 02:43:04;;;;;;;;;;;19.20;96.90;;;;;;4374190;32;43023;-77
2022/07/09 02:45:31;;;;;;;;;;;19.20;96.90;;;;;;4374856;32;44241;-77
2022/07/09 02:47:58;;;;;;;;;;;19.20;96.80;;;;;;4374919;32;43226;-77
2022/07/09 02:50:25;;;;;;;;;;;19.20;96.80;;;;;;4374557;32;42704;-77
2022/07/09 02:52:52;;;;;;;;;;;19.20;96.80;;;;;;4375055;32;43548;-77
2022/07/09 02:55:19;;;;;;;;;;;19.20;96.80;;;;;;4361511;32;44195;-77
2022/07/09 02:57:46;;;;;;;;;;;19.20;96.80;;;;;;4361526;32;45596;-77
2022/07/09 03:00:14;;;;;;;;;;;19.20;96.90;;;;;;4374994;32;45617;-77
2022/07/09 03:02:41;;;;;;;;;;;19.10;96.80;;;;;;4374509;32;43962;-77
2022/07/09 03:05:09;;;;;;;;;;;19.10;96.80;;;;;;4374640;32;44571;-77
2022/07/09 03:07:37;;;;;;;;;;;19.10;96.80;;;;;;4374533;32;42677;-77
2022/07/09 03:10:04;;;;;;;;;;;19.10;96.80;;;;;;4360835;32;42592;-77
2022/07/09 03:12:31;;;;;;;;;;;19.10;96.90;;;;;;4360873;32;45803;-77
2022/07/09 03:14:58;;;;;;;;;;;19.10;96.90;;;;;;4374257;32;44284;-77
2022/07/09 03:17:26;;;;;;;;;;;19.10;96.90;;;;;;4374750;32;44212;-77
2022/07/09 03:19:54;;;;;;;;;;;19.10;96.80;;;;;;4374254;32;43258;-77
2022/07/09 03:22:20;;;;;;;;;;;19.00;96.80;;;;;;4361141;32;44199;-77
2022/07/09 03:24:47;;;;;;;;;;;19.00;96.80;;;;;;4374587;32;44302;-77
2022/07/09 03:27:14;;;;;;;;;;;19.00;96.80;;;;;;4374270;32;44239;-77
2022/07/09 03:29:42;;;;;;;;;;;19.00;96.80;;;;;;4361067;32;44769;-77
2022/07/09 03:32:09;;;;;;;;;;;19.00;96.80;;;;;;4360887;32;43819;-77
2022/07/09 03:34:36;;;;;;;;;;;19.00;96.80;;;;;;4374358;32;43333;-77
2022/07/09 03:37:03;;;;;;;;;;;19.00;96.80;;;;;;4374721;32;44360;-77
2022/07/09 03:39:30;;;;;;;;;;;18.90;96.80;;;;;;4360963;32;44245;-77
2022/07/09 03:41:57;;;;;;;;;;;18.90;96.80;;;;;;4374660;32;43939;-77
2022/07/09 03:44:24;;;;;;;;;;;18.90;96.80;;;;;;4374286;32;42629;-77
2022/07/09 03:46:51;;;;;;;;;;;18.90;96.90;;;;;;4374153;32;43741;-77
2022/07/09 03:49:18;;;;;;;;;;;18.90;96.80;;;;;;4360928;32;38678;-77
2022/07/09 03:51:45;;;;;;;;;;;18.90;96.90;;;;;;4374605;32;33438;-77
2022/07/09 03:54:32;;;;;;;;;;;18.90;96.90;;;;;;4364090;32;45125;-76
2022/07/09 03:56:59;;;;;;;;;;;18.90;96.90;;;;;;4363684;32;44188;-77
2022/07/09 03:59:26;;;;;;;;;;;18.90;96.90;;;;;;4363225;32;43000;-77
2022/07/09 04:01:53;;;;;;;;;;;18.90;96.90;;;;;;4363072;32;43885;-77
2022/07/09 04:04:20;;;;;;;;;;;18.80;96.80;;;;;;4376972;32;45707;-77
2022/07/09 04:06:47;;;;;;;;;;;18.80;96.80;;;;;;4377022;32;43362;-77
2022/07/09 04:09:14;;;;;;;;;;;18.80;96.80;;;;;;4363057;32;43352;-77
2022/07/09 04:11:41;;;;;;;;;;;18.80;96.80;;;;;;4376422;32;43230;-76
2022/07/09 04:14:14;;;;;;;;;;;18.80;96.90;;;;;;4364255;32;44354;-77
2022/07/09 04:16:41;;;;;;;;;;;18.80;96.90;;;;;;4376663;32;44007;-77
2022/07/09 04:19:08;;;;;;;;;;;18.80;96.90;;;;;;4376421;32;43767;-77
2022/07/09 04:21:35;;;;;;;;;;;18.80;96.90;;;;;;4376414;32;42852;-77
2022/07/09 04:24:02;;;;;;;;;;;18.70;96.90;;;;;;4363268;32;42541;-77
2022/07/09 04:26:29;;;;;;;;;;;18.70;97.00;;;;;;4376212;32;44689;-77
2022/07/09 04:28:56;;;;;;;;;;;18.70;97.00;;;;;;4363238;32;45478;-77
2022/07/09 04:31:23;;;;;;;;;;;18.70;97.00;;;;;;4362672;32;42441;-77
2022/07/09 04:33:51;;;;;;;;;;;18.70;97.10;;;;;;4376601;32;43317;-77
2022/07/09 04:36:18;;;;;;;;;;;18.70;97.10;;;;;;4363198;32;43009;-77
2022/07/09 04:38:44;;;;;;;;;;;18.70;97.10;;;;;;4376640;32;43185;-77
2022/07/09 04:41:12;;;;;;;;;;;18.70;97.10;;;;;;4363172;32;44220;-77
2022/07/09 04:43:38;;;;;;;;;;;18.70;97.10;;;;;;4362722;32;44297;-77
2022/07/09 04:46:06;;;;;;;;;;;18.70;97.10;;;;;;4376123;32;42663;-77
2022/07/09 04:48:34;;;;;;;;;;;18.70;97.20;;;;;;4376308;32;45006;-76
2022/07/09 04:51:01;;;;;;;;;;;18.60;97.20;;;;;;4362531;32;43360;-77
2022/07/09 04:53:28;;;;;;;;;;;18.70;97.30;;;;;;4375938;32;43478;-77
2022/07/09 04:55:56;;;;;;;;;;;18.60;97.30;;;;;;4362437;32;44778;-77
2022/07/09 04:58:23;;;;;;;;;;;18.60;97.40;;;;;;4362518;32;43337;-77
2022/07/09 05:00:50;;;;;;;;;;;18.60;97.40;;;;;;4376030;32;43270;-77
2022/07/09 05:03:17;;;;;;;;;;;18.60;97.40;;;;;;4375829;32;43494;-77
2022/07/09 05:05:44;;;;;;;;;;;18.60;97.60;;;;;;4362432;32;44211;-78
2022/07/09 05:08:17;;;;;;;;;;;18.60;97.60;;;;;;4376003;32;43481;-77
2022/07/09 05:10:44;;;;;;;;;;;18.70;97.60;;;;;;4362329;32;43299;-77
2022/07/09 05:13:11;;;;;;;;;;;18.60;97.70;;;;;;4362205;32;43363;-77
2022/07/09 05:15:38;;;;;;;;;;;18.70;97.80;;;;;;4362250;32;43908;-77
2022/07/09 05:18:05;;;;;;;;;;;18.70;97.80;;;;;;4376010;32;43845;-77
2022/07/09 05:20:32;;;;;;;;;;;18.70;98.00;;;;;;4375854;32;44515;-77
2022/07/09 05:22:59;;;;;;;;;;;18.70;98.10;;;;;;4375372;32;44795;-77
2022/07/09 05:25:26;;;;;;;;;;;18.70;98.10;;;;;;4362348;32;43345;-77
2022/07/09 05:27:53;;;;;;;;;;;18.70;98.10;;;;;;4361936;32;44273;-77
2022/07/09 05:30:20;;;;;;;;;;;18.60;98.50;;;;;;4362152;32;44211;-77
2022/07/09 05:32:48;;;;;;;;;;;18.60;98.30;;;;;;4375275;32;42921;-77
2022/07/09 05:35:17;;;;;;;;;;;18.60;98.30;;;;;;4362309;32;43180;-77
2022/07/09 05:37:44;;;;;;;;;;;18.70;98.50;;;;;;4375282;32;43060;-77
2022/07/09 05:40:11;;;;;;;;;;;18.60;98.50;;;;;;4375173;32;42918;-77
2022/07/09 05:42:39;;;;;;;;;;;18.70;98.40;;;;;;4361761;32;43127;-77
2022/07/09 05:45:06;;;;;;;;;;;18.70;98.50;;;;;;4375046;32;44099;-77
2022/07/09 05:47:33;;;;;;;;;;;18.70;98.50;;;;;;4375280;32;43823;-77
2022/07/09 05:50:00;;;;;;;;;;;18.70;98.90;;;;;;4375104;32;42624;-77
2022/07/09 05:52:28;;;;;;;;;;;18.70;98.90;;;;;;4375177;32;44175;-76
2022/07/09 05:54:55;;;;;;;;;;;18.70;99.10;;;;;;4374991;32;43541;-77
2022/07/09 05:57:22;;;;;;;;;;;18.70;99.00;;;;;;4375463;32;42116;-79
2022/07/09 05:59:49;;;;;;;;;;;18.70;99.00;;;;;;4361733;32;44305;-80
2022/07/09 06:02:16;;;;;;;;;;;18.70;99.20;;;;;;4374981;32;43238;-79
2022/07/09 06:04:44;;;;;;;;;;;18.70;99.10;;;;;;4375129;32;43865;-78
2022/07/09 06:07:11;;;;;;;;;;;18.70;99.30;;;;;;4374989;32;43254;-77
2022/07/09 06:09:38;;;;;;;;;;;18.70;99.30;;;;;;4375167;32;43328;-77
2022/07/09 06:12:08;;;;;;;;;;;18.80;99.50;;;;;;4375155;32;42344;-78
2022/07/09 06:14:35;;;;;;;;;;;18.80;99.50;;;;;;4361506;32;43020;-77
2022/07/09 06:17:05;;;;;;;;;;;18.80;99.40;;;;;;4374227;32;44237;-78
2022/07/09 06:19:36;;;;;;;;;;;18.80;99.50;;;;;;4374731;32;42838;-77
2022/07/09 06:22:03;;;;;;;;;;;18.80;99.50;;;;;;4361278;32;42904;-77
2022/07/09 06:24:30;;;;;;;;;;;18.80;99.50;;;;;;4361257;32;42701;-77
2022/07/09 06:26:57;;;;;;;;;;;18.80;99.70;;;;;;4374615;32;45923;-77
2022/07/09 06:29:24;;;;;;;;;;;18.80;99.70;;;;;;4361063;32;46179;-77
2022/07/09 06:31:52;;;;;;;;;;;18.80;99.90;;;;;;4374730;32;42763;-77
2022/07/09 06:34:19;;;;;;;;;;;18.80;99.60;;;;;;4375239;32;43256;-78
2022/07/09 06:36:46;;;;;;;;;;;18.80;99.80;;;;;;4374760;32;42713;-78
2022/07/09 06:42:05;;;;;;;;;;;18.90;99.80;;;;;;4375022;32;43857;-79
2022/07/09 06:44:33;;;;;;;;;;;18.90;99.90;;;;;;4374887;32;44072;-80
2022/07/09 06:47:00;;;;;;;;;;;18.90;99.80;;;;;;4374162;32;42742;-79
2022/07/09 06:49:28;;;;;;;;;;;18.90;99.90;;;;;;4374585;32;45151;-80
2022/07/09 06:51:56;;;;;;;;;;;18.90;99.60;;;;;;4374369;32;45451;-80
2022/07/09 06:54:23;;;;;;;;;;;18.90;99.80;;;;;;4360964;32;43795;-80
2022/07/09 06:56:50;;;;;;;;;;;18.90;99.70;;;;;;4361080;32;43522;-81
2022/07/09 06:59:18;;;;;;;;;;;18.90;99.80;;;;;;4374886;32;45247;-80
2022/07/09 07:01:45;;;;;;;;;;;18.90;99.90;;;;;;4358142;33;43039;-82
2022/07/09 07:04:15;;;;;;;;;;;19.00;99.90;;;;;;4358314;33;45881;-83
2022/07/09 07:06:42;;;;;;;;;;;18.90;99.80;;;;;;4358438;33;45116;-81
2022/07/09 07:09:09;;;;;;;;;;;19.00;99.80;;;;;;4358755;33;44109;-81
2022/07/09 07:11:36;;;;;;;;;;;19.00;99.90;;;;;;4359194;33;46107;-83
2022/07/09 07:14:03;;;;;;;;;;;19.00;99.90;;;;;;4358472;33;44060;-81
2022/07/09 07:16:30;;;;;;;;;;;19.00;99.80;;;;;;4359334;33;43528;-82
2022/07/09 07:18:57;;;;;;;;;;;19.00;99.70;;;;;;4358601;33;43062;-81
2022/07/09 07:21:24;;;;;;;;;;;19.00;99.90;;;;;;4358623;33;44165;-80
2022/07/09 07:23:51;;;;;;;;;;;19.00;99.90;;;;;;4358658;33;43478;-81
2022/07/09 07:26:18;;;;;;;;;;;19.00;99.90;;;;;;4359913;33;43854;-81
2022/07/09 07:28:45;;;;;;;;;;;19.00;99.90;;;;;;4359538;32;42881;-81
2022/07/09 07:31:12;;;;;;;;;;;19.00;99.90;;;;;;4361556;32;44014;-81
2022/07/09 07:33:40;;;;;;;;;;;19.10;99.90;;;;;;4362056;32;43854;-82
2022/07/09 07:36:08;;;;;;;;;;;19.10;99.90;;;;;;4362476;32;43897;-81
2022/07/09 07:38:35;;;;;;;;;;;19.10;99.90;;;;;;4362417;32;45006;-81
2022/07/09 07:41:04;;;;;;;;;;;19.10;99.90;;;;;;4361287;32;44434;-81
2022/07/09 07:43:31;;;;;;;;;;;19.10;99.90;;;;;;4361046;32;44176;-81
2022/07/09 07:45:58;;;;;;;;;;;19.10;99.90;;;;;;4362407;32;43482;-80
2022/07/09 07:48:35;;;;;;;;;;;19.10;99.90;;;;;;4362465;32;44171;-81
2022/07/09 07:51:03;;;;;;;;;;;19.10;99.80;;;;;;4362217;32;43816;-81
2022/07/09 07:53:31;;;;;;;;;;;19.10;99.80;;;;;;4360949;32;43478;-80
2022/07/09 07:56:05;;;;;;;;;;;19.10;99.80;;;;;;4361973;32;45113;-81
2022/07/09 07:58:32;;;;;;;;;;;19.10;99.80;;;;;;4362218;32;42990;-80
2022/07/09 08:01:00;;;;;;;;;;;19.10;99.80;;;;;;4362193;32;45227;-81
2022/07/09 08:03:27;;;;;;;;;;;19.10;99.90;;;;;;4376030;32;45642;-80
2022/07/09 08:05:58;;;;;;;;;;;19.20;99.90;;;;;;4363736;32;44361;-80
2022/07/09 08:08:26;;;;;;;;;;;19.20;99.90;;;;;;4363077;32;45747;-81
2022/07/09 08:10:53;;;;;;;;;;;19.10;99.80;;;;;;4363375;32;43018;-81
2022/07/09 08:13:20;;;;;;;;;;;19.20;99.90;;;;;;4376751;32;44097;-80
2022/07/09 08:15:47;;;;;;;;;;;19.20;99.90;;;;;;4376636;32;42251;-80
2022/07/09 08:18:14;;;;;;;;;;;19.20;99.90;;;;;;4376729;32;45346;-81
2022/07/09 08:20:42;;;;;;;;;;;19.20;99.90;;;;;;4363360;32;44256;-81
2022/07/09 08:23:09;;;;;;;;;;;19.20;99.90;;;;;;4376313;32;45237;-81
2022/07/09 08:25:37;;;;;;;;;;;19.20;99.90;;;;;;4362932;32;42935;-80
2022/07/09 08:28:04;;;;;;;;;;;19.20;99.90;;;;;;4363146;32;44878;-80
2022/07/09 08:30:32;;;;;;;;;;;19.20;99.90;;;;;;4363372;32;43564;-81
2022/07/09 08:32:59;;;;;;;;;;;19.20;99.90;;;;;;4363091;32;44223;-80
2022/07/09 08:35:26;;;;;;;;;;;19.20;99.90;;;;;;4363299;32;44588;-80
2022/07/09 08:37:53;;;;;;;;;;;19.20;99.90;;;;;;4376149;32;43896;-80
2022/07/09 08:40:21;;;;;;;;;;;19.20;99.90;;;;;;4375447;32;42738;-81
2022/07/09 08:42:53;;;;;;;;;;;19.20;99.90;;;;;;4362934;32;44475;-80
2022/07/09 08:45:20;;;;;;;;;;;19.20;99.90;;;;;;4362758;32;42992;-81
2022/07/09 08:47:47;;;;;;;;;;;19.30;99.90;;;;;;4362647;32;43375;-80
2022/07/09 08:50:14;;;;;;;;;;;19.30;99.90;;;;;;4376181;32;43977;-80
2022/07/09 08:52:41;;;;;;;;;;;19.30;99.90;;;;;;4362522;32;43034;-80
2022/07/09 08:55:09;;;;;;;;;;;19.30;99.90;;;;;;4376246;32;43363;-81
2022/07/09 08:57:36;;;;;;;;;;;19.30;99.90;;;;;;4362426;32;44863;-80
2022/07/09 09:00:05;;;;;;;;;;;19.30;99.90;;;;;;4375960;32;43959;-80
2022/07/09 09:02:38;;;;;;;;;;;19.30;99.90;;;;;;4375605;32;43745;-81
2022/07/09 09:05:13;;;;;;;;;;;19.30;99.90;;;;;;4362833;32;44093;-79
2022/07/09 09:07:40;;;;;;;;;;;19.40;99.90;;;;;;4376197;32;44157;-80
2022/07/09 09:10:07;;;;;;;;;;;19.30;99.90;;;;;;4375881;32;44108;-80
2022/07/09 09:12:35;;;;;;;;;;;19.30;99.90;;;;;;4375574;32;43265;-80
2022/07/09 09:15:05;;;;;;;;;;;19.40;99.90;;;;;;4362284;32;43493;-78
2022/07/09 09:17:33;;;;;;;;;;;19.30;99.90;;;;;;4375796;32;43454;-80
2022/07/09 09:20:10;;;;;;;;;;;19.40;99.90;;;;;;4375771;32;43367;-80
2022/07/09 09:22:43;;;;;;;;;;;19.40;99.90;;;;;;4375630;32;42304;-80
2022/07/09 09:25:18;;;;;;;;;;;19.40;99.90;;;;;;4375911;32;44498;-80
2022/07/09 09:27:58;;;;;;;;;;;19.40;99.90;;;;;;4361999;32;43667;-80
2022/07/09 09:30:26;;;;;;;;;;;19.40;99.90;;;;;;4375773;32;42717;-80
2022/07/09 09:32:57;;;;;;;;;;;19.40;99.90;;;;;;4375533;32;43275;-80
2022/07/09 09:35:25;;;;;;;;;;;19.40;99.90;;;;;;4375371;32;42881;-80
2022/07/09 09:37:53;;;;;;;;;;;19.40;99.90;;;;;;4362348;32;44117;-81
2022/07/09 09:40:20;;;;;;;;;;;19.40;99.90;;;;;;4362228;32;44584;-80
2022/07/09 09:42:47;;;;;;;;;;;19.40;99.90;;;;;;4375512;32;42885;-80
2022/07/09 09:45:22;;;;;;;;;;;19.40;99.90;;;;;;4375743;32;43978;-80
2022/07/09 09:47:49;;;;;;;;;;;19.50;99.90;;;;;;4375508;32;43290;-80
2022/07/09 09:50:21;;;;;;;;;;;19.50;99.90;;;;;;4362197;32;43193;-80
2022/07/09 09:52:48;;;;;;;;;;;19.50;99.90;;;;;;4375113;32;43855;-81
2022/07/09 09:55:16;;;;;;;;;;;19.50;99.90;;;;;;4362384;32;43891;-81
2022/07/09 09:57:43;;;;;;;;;;;19.50;99.90;;;;;;4362188;32;45842;-81
2022/07/09 10:00:11;;;;;;;;;;;19.50;99.90;;;;;;4362068;32;44174;-79
2022/07/09 10:02:42;;;;;;;;;;;19.60;99.90;;;;;;4361334;32;42314;-80
2022/07/09 10:05:09;;;;;;;;;;;19.60;99.90;;;;;;4361860;32;42657;-80
2022/07/09 10:07:36;;;;;;;;;;;19.60;99.90;;;;;;4374936;32;44282;-80
2022/07/09 10:10:04;;;;;;;;;;;19.60;99.90;;;;;;4375434;32;43389;-79
2022/07/09 10:12:37;;;;;;;;;;;19.60;99.90;;;;;;4375432;32;43206;-79
2022/07/09 10:15:24;;;;;;;;;;;19.60;99.90;;;;;;4374732;32;46034;-81
2022/07/09 10:17:52;;;;;;;;;;;19.60;99.90;;;;;;4361838;32;44767;-80
2022/07/09 10:20:33;;;;;;;;;;;19.60;99.80;;;;;;4375207;32;43825;-81
2022/07/09 10:23:02;;;;;;;;;;;19.60;99.70;;;;;;4361931;32;44738;-79
2022/07/09 10:25:29;;;;;;;;;;;19.60;99.70;;;;;;4375503;32;44230;-80
2022/07/09 10:27:56;;;;;;;;;;;19.70;99.60;;;;;;4361322;32;42944;-81
2022/07/09 10:30:28;;;;;;;;;;;19.70;99.60;;;;;;4361775;32;43225;-80
2022/07/09 10:33:05;;;;;;;;;;;19.70;99.70;;;;;;4374641;32;43855;-81
2022/07/09 10:35:39;;;;;;;;;;;19.70;99.60;;;;;;4374972;32;43241;-80
2022/07/09 10:38:07;;;;;;;;;;;19.70;99.50;;;;;;4361537;32;43181;-80
2022/07/09 10:40:44;;;;;;;;;;;19.80;99.50;;;;;;4374583;32;43651;-79
2022/07/09 10:43:11;;;;;;;;;;;19.80;99.70;;;;;;4374949;32;43931;-80
2022/07/09 10:45:38;;;;;;;;;;;19.80;99.50;;;;;;4375313;32;44058;-80
2022/07/09 10:48:06;;;;;;;;;;;19.80;99.50;;;;;;4361713;32;43607;-80
2022/07/09 10:50:39;;;;;;;;;;;19.80;99.60;;;;;;4374452;32;43241;-80
2022/07/09 10:53:07;;;;;;;;;;;19.80;99.20;;;;;;4361259;32;43745;-84
2022/07/09 10:55:34;;;;;;;;;;;19.80;99.40;;;;;;4361820;32;20481;-80
2022/07/09 10:58:02;;;;;;;;;;;19.80;99.20;;;;;;4374367;32;44857;-81
2022/07/09 11:00:30;;;;;;;;;;;19.80;99.20;;;;;;4361631;32;44195;-78
2022/07/09 11:02:58;;;;;;;;;;;19.80;99.30;;;;;;4374394;32;44157;-80
2022/07/09 11:05:26;;;;;;;;;;;19.90;99.40;;;;;;4364466;32;44016;-81
2022/07/09 11:07:56;;;;;;;;;;;19.90;99.30;;;;;;4363995;32;42859;-81
2022/07/09 11:10:23;;;;;;;;;;;20.00;99.30;;;;;;4377814;32;43193;-80
2022/07/09 11:12:50;;;;;;;;;;;20.00;99.40;;;;;;4364041;32;45520;-80
2022/07/09 11:15:18;;;;;;;;;;;20.00;99.40;;;;;;4377609;32;42498;-80
2022/07/09 11:17:53;;;;;;;;;;;20.00;99.40;;;;;;4363805;32;42943;-81
2022/07/09 11:20:20;;;;;;;;;;;20.00;99.60;;;;;;4364475;32;43928;-81
2022/07/09 11:22:48;;;;;;;;;;;20.00;99.60;;;;;;4377821;32;43920;-80
2022/07/09 11:25:22;;;;;;;;;;;20.10;99.40;;;;;;4364624;32;44086;-74
2022/07/09 11:27:49;;;;;;;;;;;20.10;99.40;;;;;;4363494;32;44708;-74
2022/07/09 11:30:16;;;;;;;;;;;20.10;99.40;;;;;;4377091;32;43154;-76
2022/07/09 11:32:43;;;;;;;;;;;20.10;99.40;;;;;;4376980;32;43478;-74
2022/07/09 11:35:11;;;;;;;;;;;20.10;99.50;;;;;;4377053;32;42089;-75
2022/07/09 11:37:44;;;;;;;;;;;20.20;99.40;;;;;;4376940;32;42677;-75
2022/07/09 11:40:15;;;;;;;;;;;20.20;99.40;;;;;;4363566;32;43979;-74
2022/07/09 11:42:45;;;;;;;;;;;20.20;99.50;;;;;;4377503;32;43920;-75
2022/07/09 11:45:12;;;;;;;;;;;20.20;99.50;;;;;;4377318;32;42447;-74
2022/07/09 11:47:39;;;;;;;;;;;20.20;99.80;;;;;;4376984;32;43010;-74
2022/07/09 11:50:06;;;;;;;;;;;20.20;99.30;;;;;;4363949;32;44840;-75
2022/07/09 11:52:34;;;;;;;;;;;20.30;99.40;;;;;;4376723;32;43318;-74
2022/07/09 11:55:07;;;;;;;;;;;20.30;99.40;;;;;;4364698;32;43445;-74
2022/07/09 11:57:35;;;;;;;;;;;20.30;99.80;;;;;;4363493;32;42115;-75
2022/07/09 12:00:03;;;;;;;;;;;20.30;99.60;;;;;;4376600;32;43300;-76
2022/07/09 12:02:37;;;;;;;;;;;20.30;99.80;;;;;;4376738;32;43198;-75
2022/07/09 12:05:05;;;;;;;;;;;20.30;99.60;;;;;;4363304;32;44210;-75
2022/07/09 12:07:34;;;;;;;;;;;20.30;99.60;;;;;;4376568;32;41804;-75
2022/07/09 12:10:04;;;;;;;;;;;20.40;99.70;;;;;;4376935;32;43172;-75
2022/07/09 12:12:32;;;;;;;;;;;20.40;99.80;;;;;;4363407;32;43477;-74
2022/07/09 12:14:59;;;;;;;;;;;20.40;99.80;;;;;;4375596;32;43301;-76
2022/07/09 12:17:34;;;;;;;;;;;20.40;99.80;;;;;;4364555;32;43430;-75
2022/07/09 12:20:06;;;;;;;;;;;20.40;99.70;;;;;;4376738;32;45174;-75
2022/07/09 12:22:33;;;;;;;;;;;20.40;99.70;;;;;;4363393;32;43598;-77
2022/07/09 12:25:01;;;;;;;;;;;20.40;99.70;;;;;;4376712;32;43608;-75
2022/07/09 12:27:28;;;;;;;;;;;20.40;99.90;;;;;;4376489;32;43179;-75
2022/07/09 12:29:55;;;;;;;;;;;20.50;99.90;;;;;;4362921;32;43833;-75
2022/07/09 12:32:22;;;;;;;;;;;20.50;99.90;;;;;;4362928;32;43009;-76
2022/07/09 12:34:49;;;;;;;;;;;20.50;99.90;;;;;;4376124;32;43459;-75
2022/07/09 12:37:19;;;;;;;;;;;20.50;99.90;;;;;;4376629;32;43367;-75
2022/07/09 12:39:46;;;;;;;;;;;20.60;99.90;;;;;;4376341;32;43901;-75
2022/07/09 12:42:18;;;;;;;;;;;20.60;99.90;;;;;;4376435;32;43594;-75
2022/07/09 12:44:46;;;;;;;;;;;20.60;99.90;;;;;;4363071;32;42095;-76
2022/07/09 12:47:13;;;;;;;;;;;20.60;99.90;;;;;;4363097;32;43137;-74
2022/07/09 12:49:40;;;;;;;;;;;20.60;99.90;;;;;;4376014;32;43053;-76
2022/07/09 12:52:07;;;;;;;;;;;20.60;99.80;;;;;;4376278;32;45836;-77
2022/07/09 12:54:34;;;;;;;;;;;20.70;99.80;;;;;;4376347;32;44537;-76
2022/07/09 12:57:01;;;;;;;;;;;20.70;99.90;;;;;;4375922;32;44183;-76
2022/07/09 12:59:35;;;;;;;;;;;20.70;99.90;;;;;;4376536;32;43141;-78
2022/07/09 13:02:03;;;;;;;;;;;20.70;99.90;;;;;;4375777;32;42149;-77
2022/07/09 13:04:30;;;;;;;;;;;20.70;99.90;;;;;;4376219;32;44217;-76
2022/07/09 13:06:57;;;;;;;;;;;20.80;99.90;;;;;;4375745;32;44001;-77
2022/07/09 13:09:24;;;;;;;;;;;20.70;99.90;;;;;;4376128;32;43338;-76
2022/07/09 13:11:51;;;;;;;;;;;20.80;99.90;;;;;;4375716;32;43921;-76
2022/07/09 13:14:18;;;;;;;;;;;20.80;99.90;;;;;;4375570;32;43871;-78
2022/07/09 13:16:45;;;;;;;;;;;20.80;99.90;;;;;;4375990;32;44611;-77
2022/07/09 13:19:32;;;;;;;;;;;20.80;99.90;;;;;;4376067;32;44265;-77
2022/07/09 13:21:59;;;;;;;;;;;20.90;99.70;;;;;;4375541;32;43664;-76
2022/07/09 13:24:26;;;;;;;;;;;20.80;99.50;;;;;;4362012;32;43793;-75
2022/07/09 13:26:53;;;;;;;;;;;20.80;99.70;;;;;;4375140;32;44024;-77
2022/07/09 13:29:28;;;;;;;;;;;20.90;99.70;;;;;;4375929;32;43021;-76
2022/07/09 13:31:55;;;;;;;;;;;20.90;99.80;;;;;;4375347;32;43863;-76
2022/07/09 13:34:22;;;;;;;;;;;20.90;99.80;;;;;;4362008;32;43745;-77
2022/07/09 13:36:49;;;;;;;;;;;20.90;99.70;;;;;;4375437;32;43237;-77
2022/07/09 13:39:16;;;;;;;;;;;20.90;99.40;;;;;;4361859;32;42902;-75
2022/07/09 13:41:43;;;;;;;;;;;21.00;99.10;;;;;;4375488;32;45687;-77
2022/07/09 13:44:10;;;;;;;;;;;21.00;98.80;;;;;;4375701;32;43896;-76
2022/07/09 13:46:37;;;;;;;;;;;21.00;98.80;;;;;;4375157;32;43915;-77
2022/07/09 13:49:04;;;;;;;;;;;21.00;99.10;;;;;;4375163;32;42879;-74
2022/07/09 13:51:33;;;;;;;;;;;21.00;99.00;;;;;;4375627;32;43832;-77
2022/07/09 13:54:00;;;;;;;;;;;21.00;99.00;;;;;;4375337;32;43746;-75
2022/07/09 13:56:27;;;;;;;;;;;21.00;99.00;;;;;;4361639;32;44188;-76
2022/07/09 13:58:54;;;;;;;;;;;21.10;98.90;;;;;;4375452;32;44276;-77
2022/07/09 14:01:21;;;;;;;;;;;21.10;98.70;;;;;;4375322;32;43236;-77
2022/07/09 14:03:48;;;;;;;;;;;21.10;98.50;;;;;;4375404;32;45739;-77
2022/07/09 14:06:15;;;;;;;;;;;21.10;98.40;;;;;;4361480;32;42879;-78
2022/07/09 14:09:03;;;;;;;;;;;21.10;98.20;;;;;;4375392;32;45828;-75
2022/07/09 14:11:30;;;;;;;;;;;21.10;98.10;;;;;;4374854;32;43244;-75
2022/07/09 14:13:57;;;;;;;;;;;21.10;98.00;;;;;;4375325;32;44364;-75
2022/07/09 14:16:24;;;;;;;;;;;21.20;98.00;;;;;;4374911;32;42572;-76
2022/07/09 14:18:52;;;;;;;;;;;21.20;97.80;;;;;;4361424;32;43731;-76
2022/07/09 14:21:19;;;;;;;;;;;21.20;97.80;;;;;;4375072;32;43247;-74
2022/07/09 14:23:48;;;;;;;;;;;21.20;97.90;;;;;;4375280;32;43274;-75